sensor_id;sensor_type;location;lat;lon;timestamp;pressure;altitude;pressure_sealevel;temperature;humidity
77110;BME280;66062;52.464;16.922;2023-09-30T00:02:16;100626.13;;;21.32;71.11
77110;BME280;66062;52.464;16.922;2023-09-30T00:04:42;100624.66;;;21.37;70.94
77110;BME280;66062;52.464;16.922;2023-09-30T00:07:07;100625.06;;;21.33;71.29
77110;BME280;66062;52.464;16.922;2023-09-30T00:09:33;100619.44;;;21.22;71.76
77110;BME280;66062;52.464;16.922;2023-09-30T00:11:58;100620.28;;;21.22;71.76
77110;BME280;66062;52.464;16.922;2023-09-30T00:14:25;100624.66;;;21.23;71.86
77110;BME280;66062;52.464;16.922;2023-09-30T00:16:50;100631.97;;;21.16;72.39
77110;BME280;66062;52.464;16.922;2023-09-30T00:19:16;100626.91;;;21.13;72.36
77110;BME280;66062;52.464;16.922;2023-09-30T00:21:41;100629.84;;;21.12;72.53
77110;BME280;66062;52.464;16.922;2023-09-30T00:24:06;100625.25;;;21.06;72.74
77110;BME280;66062;52.464;16.922;2023-09-30T00:26:32;100625.44;;;21.04;72.70
77110;BME280;66062;52.464;16.922;2023-09-30T00:28:57;100636.31;;;20.98;72.84
77110;BME280;66062;52.464;16.922;2023-09-30T00:31:23;100626.06;;;20.93;73.13
77110;BME280;66062;52.464;16.922;2023-09-30T00:33:48;100626.06;;;20.93;73.27
77110;BME280;66062;52.464;16.922;2023-09-30T00:36:13;100625.63;;;20.89;73.32
77110;BME280;66062;52.464;16.922;2023-09-30T00:38:39;100626.25;;;20.85;73.14
77110;BME280;66062;52.464;16.922;2023-09-30T00:41:05;100625.84;;;20.88;73.12
77110;BME280;66062;52.464;16.922;2023-09-30T00:43:32;100624.59;;;20.77;73.94
77110;BME280;66062;52.464;16.922;2023-09-30T00:46:04;100631.06;;;20.76;73.72
77110;BME280;66062;52.464;16.922;2023-09-30T00:48:34;100628.53;;;20.75;74.10
77110;BME280;66062;52.464;16.922;2023-09-30T00:51:00;100626.47;;;20.77;74.03
77110;BME280;66062;52.464;16.922;2023-09-30T00:53:26;100630.59;;;20.73;74.27
77110;BME280;66062;52.464;16.922;2023-09-30T00:55:52;100628.72;;;20.73;74.66
77110;BME280;66062;52.464;16.922;2023-09-30T00:58:17;100634.38;;;20.72;74.83
77110;BME280;66062;52.464;16.922;2023-09-30T01:00:43;100635.22;;;20.72;75.01
77110;BME280;66062;52.464;16.922;2023-09-30T01:03:09;100642.31;;;20.67;75.56
77110;BME280;66062;52.464;16.922;2023-09-30T01:05:35;100640.41;;;20.67;75.54
77110;BME280;66062;52.464;16.922;2023-09-30T01:08:01;100644.78;;;20.62;76.11
77110;BME280;66062;52.464;16.922;2023-09-30T01:10:28;100646.44;;;20.56;76.49
77110;BME280;66062;52.464;16.922;2023-09-30T01:12:53;100654.78;;;20.55;76.86
77110;BME280;66062;52.464;16.922;2023-09-30T01:15:18;100656.84;;;20.53;77.19
77110;BME280;66062;52.464;16.922;2023-09-30T01:17:44;100663.09;;;20.46;77.75
77110;BME280;66062;52.464;16.922;2023-09-30T01:20:10;100664.59;;;20.56;77.47
77110;BME280;66062;52.464;16.922;2023-09-30T01:22:41;100655.16;;;20.45;78.72
77110;BME280;66062;52.464;16.922;2023-09-30T01:25:08;100667.06;;;20.51;78.36
77110;BME280;66062;52.464;16.922;2023-09-30T01:27:35;100667.84;;;20.38;79.34
77110;BME280;66062;52.464;16.922;2023-09-30T01:30:00;100673.03;;;20.33;80.04
77110;BME280;66062;52.464;16.922;2023-09-30T01:32:26;100671.16;;;20.33;80.42
77110;BME280;66062;52.464;16.922;2023-09-30T01:34:52;100679.03;;;20.28;80.30
77110;BME280;66062;52.464;16.922;2023-09-30T01:37:17;100670.44;;;20.18;81.47
77110;BME280;66062;52.464;16.922;2023-09-30T01:39:42;100668.31;;;20.14;82.11
77110;BME280;66062;52.464;16.922;2023-09-30T01:42:10;100678.69;;;20.03;83.21
77110;BME280;66062;52.464;16.922;2023-09-30T01:44:35;100673.63;;;19.94;84.27
77110;BME280;66062;52.464;16.922;2023-09-30T01:47:01;100683.94;;;20.05;84.02
77110;BME280;66062;52.464;16.922;2023-09-30T01:49:26;100689.72;;;20.02;84.59
77110;BME280;66062;52.464;16.922;2023-09-30T01:51:51;100695.97;;;19.96;85.13
77110;BME280;66062;52.464;16.922;2023-09-30T01:54:17;100695.97;;;19.96;85.45
77110;BME280;66062;52.464;16.922;2023-09-30T01:56:42;100690.53;;;19.96;85.88
77110;BME280;66062;52.464;16.922;2023-09-30T01:59:08;100702.41;;;19.95;86.39
77110;BME280;66062;52.464;16.922;2023-09-30T02:01:33;100707.78;;;19.88;87.31
77110;BME280;66062;52.464;16.922;2023-09-30T02:03:58;100715.00;;;19.81;88.24
77110;BME280;66062;52.464;16.922;2023-09-30T02:06:26;100711.03;;;19.77;89.16
77110;BME280;66062;52.464;16.922;2023-09-30T02:08:52;100713.94;;;19.76;90.18
77110;BME280;66062;52.464;16.922;2023-09-30T02:11:17;100708.53;;;19.76;91.21
77110;BME280;66062;52.464;16.922;2023-09-30T02:13:42;100719.13;;;19.71;91.72
77110;BME280;66062;52.464;16.922;2023-09-30T02:16:13;100713.22;;;19.60;93.13
77110;BME280;66062;52.464;16.922;2023-09-30T02:18:39;100714.16;;;19.53;93.97
77110;BME280;66062;52.464;16.922;2023-09-30T02:21:06;100721.09;;;19.55;94.20
77110;BME280;66062;52.464;16.922;2023-09-30T02:23:34;100725.59;;;19.48;94.73
77110;BME280;66062;52.464;16.922;2023-09-30T02:25:59;100736.13;;;19.43;95.59
77110;BME280;66062;52.464;16.922;2023-09-30T02:28:24;100737.84;;;19.44;95.48
77110;BME280;66062;52.464;16.922;2023-09-30T02:30:50;100739.88;;;19.42;95.77
77110;BME280;66062;52.464;16.922;2023-09-30T02:33:15;100746.97;;;19.43;95.94
77110;BME280;66062;52.464;16.922;2023-09-30T02:35:45;100749.78;;;19.50;95.52
77110;BME280;66062;52.464;16.922;2023-09-30T02:38:13;100758.25;;;19.47;95.49
77110;BME280;66062;52.464;16.922;2023-09-30T02:40:43;100762.53;;;19.41;95.63
77110;BME280;66062;52.464;16.922;2023-09-30T02:43:12;100771.06;;;19.38;96.23
77110;BME280;66062;52.464;16.922;2023-09-30T02:45:37;100769.47;;;19.44;95.78
77110;BME280;66062;52.464;16.922;2023-09-30T02:48:03;100766.59;;;19.45;95.59
77110;BME280;66062;52.464;16.922;2023-09-30T02:50:29;100778.44;;;19.44;95.76
77110;BME280;66062;52.464;16.922;2023-09-30T02:52:54;100777.69;;;19.50;95.72
77110;BME280;66062;52.464;16.922;2023-09-30T02:55:20;100777.75;;;19.42;96.22
77110;BME280;66062;52.464;16.922;2023-09-30T02:57:45;100777.50;;;19.37;96.61
77110;BME280;66062;52.464;16.922;2023-09-30T03:00:12;100781.91;;;19.38;96.95
77110;BME280;66062;52.464;16.922;2023-09-30T03:03:00;100785.63;;;19.37;97.01
77110;BME280;66062;52.464;16.922;2023-09-30T03:05:25;100763.56;;;19.40;96.74
77110;BME280;66062;52.464;16.922;2023-09-30T03:07:52;100772.34;;;19.21;98.89
77110;BME280;66062;52.464;16.922;2023-09-30T03:10:18;100775.00;;;19.14;99.51
77110;BME280;66062;52.464;16.922;2023-09-30T03:12:52;100784.00;;;19.21;99.14
77110;BME280;66062;52.464;16.922;2023-09-30T03:15:18;100785.25;;;19.19;99.31
77110;BME280;66062;52.464;16.922;2023-09-30T03:17:44;100785.25;;;19.19;99.26
77110;BME280;66062;52.464;16.922;2023-09-30T03:20:10;100790.69;;;19.26;98.95
77110;BME280;66062;52.464;16.922;2023-09-30T03:22:41;100783.38;;;19.19;98.65
77110;BME280;66062;52.464;16.922;2023-09-30T03:25:09;100798.28;;;19.15;98.69
77110;BME280;66062;52.464;16.922;2023-09-30T03:27:34;100796.91;;;19.05;99.08
77110;BME280;66062;52.464;16.922;2023-09-30T03:30:01;100802.31;;;19.05;99.21
77110;BME280;66062;52.464;16.922;2023-09-30T03:32:27;100798.53;;;18.99;99.14
77110;BME280;66062;52.464;16.922;2023-09-30T03:34:53;100807.59;;;18.92;99.36
77110;BME280;66062;52.464;16.922;2023-09-30T03:37:18;100800.44;;;18.84;99.62
77110;BME280;66062;52.464;16.922;2023-09-30T03:39:43;100801.63;;;18.82;99.49
77110;BME280;66062;52.464;16.922;2023-09-30T03:42:09;100808.28;;;18.79;99.51
77110;BME280;66062;52.464;16.922;2023-09-30T03:44:37;100800.91;;;18.73;99.02
77110;BME280;66062;52.464;16.922;2023-09-30T03:47:03;100805.56;;;18.64;98.78
77110;BME280;66062;52.464;16.922;2023-09-30T03:49:30;100825.03;;;18.74;97.76
77110;BME280;66062;52.464;16.922;2023-09-30T03:51:55;100825.53;;;18.63;97.86
77110;BME280;66062;52.464;16.922;2023-09-30T03:54:20;100823.56;;;18.57;98.19
77110;BME280;66062;52.464;16.922;2023-09-30T03:56:47;100828.03;;;18.65;97.65
77110;BME280;66062;52.464;16.922;2023-09-30T03:59:12;100837.09;;;18.57;98.95
77110;BME280;66062;52.464;16.922;2023-09-30T04:01:37;100843.63;;;18.63;97.78
77110;BME280;66062;52.464;16.922;2023-09-30T04:04:06;100858.72;;;18.57;97.95
77110;BME280;66062;52.464;16.922;2023-09-30T04:06:32;100851.13;;;18.53;98.01
77110;BME280;66062;52.464;16.922;2023-09-30T04:08:58;100855.00;;;18.58;97.07
77110;BME280;66062;52.464;16.922;2023-09-30T04:11:24;100862.09;;;18.36;98.11
77110;BME280;66062;52.464;16.922;2023-09-30T04:13:49;100864.06;;;18.28;99.03
77110;BME280;66062;52.464;16.922;2023-09-30T04:16:15;100884.72;;;18.21;99.61
77110;BME280;66062;52.464;16.922;2023-09-30T04:18:43;100881.22;;;17.98;100.00
77110;BME280;66062;52.464;16.922;2023-09-30T04:21:09;100892.78;;;17.83;100.00
77110;BME280;66062;52.464;16.922;2023-09-30T04:23:34;100897.81;;;17.64;100.00
77110;BME280;66062;52.464;16.922;2023-09-30T04:26:02;100914.97;;;17.40;100.00
77110;BME280;66062;52.464;16.922;2023-09-30T04:28:28;100920.69;;;17.06;100.00
77110;BME280;66062;52.464;16.922;2023-09-30T04:30:54;100937.94;;;16.73;100.00
77110;BME280;66062;52.464;16.922;2023-09-30T04:33:19;100954.97;;;16.57;100.00
77110;BME280;66062;52.464;16.922;2023-09-30T04:35:49;100962.22;;;16.48;100.00
77110;BME280;66062;52.464;16.922;2023-09-30T04:38:15;100957.34;;;16.44;100.00
77110;BME280;66062;52.464;16.922;2023-09-30T04:40:40;100957.84;;;16.39;100.00
77110;BME280;66062;52.464;16.922;2023-09-30T04:43:05;100968.13;;;16.44;100.00
77110;BME280;66062;52.464;16.922;2023-09-30T04:45:31;100975.84;;;16.47;100.00
77110;BME280;66062;52.464;16.922;2023-09-30T04:47:56;100977.38;;;16.49;100.00
77110;BME280;66062;52.464;16.922;2023-09-30T04:50:22;100980.06;;;16.41;100.00
77110;BME280;66062;52.464;16.922;2023-09-30T04:52:48;100981.59;;;16.44;100.00
77110;BME280;66062;52.464;16.922;2023-09-30T04:55:17;100982.09;;;16.39;100.00
77110;BME280;66062;52.464;16.922;2023-09-30T04:57:44;100986.31;;;16.50;100.00
77110;BME280;66062;52.464;16.922;2023-09-30T05:00:12;100989.19;;;16.40;100.00
77110;BME280;66062;52.464;16.922;2023-09-30T05:02:40;100984.28;;;16.44;100.00
77110;BME280;66062;52.464;16.922;2023-09-30T05:05:06;100992.00;;;16.47;100.00
77110;BME280;66062;52.464;16.922;2023-09-30T05:07:32;101002.47;;;16.42;100.00
77110;BME280;66062;52.464;16.922;2023-09-30T05:09:57;101011.72;;;16.31;100.00
77110;BME280;66062;52.464;16.922;2023-09-30T05:12:23;101006.47;;;16.21;100.00
77110;BME280;66062;52.464;16.922;2023-09-30T05:14:48;101015.25;;;16.23;100.00
77110;BME280;66062;52.464;16.922;2023-09-30T05:17:14;101023.69;;;16.29;100.00
77110;BME280;66062;52.464;16.922;2023-09-30T05:19:39;101027.19;;;16.21;100.00
77110;BME280;66062;52.464;16.922;2023-09-30T05:22:05;101036.47;;;16.26;100.00
77110;BME280;66062;52.464;16.922;2023-09-30T05:24:31;101043.66;;;16.02;100.00
77110;BME280;66062;52.464;16.922;2023-09-30T05:26:56;101045.09;;;15.80;100.00
77110;BME280;66062;52.464;16.922;2023-09-30T05:29:22;101055.03;;;15.79;100.00
77110;BME280;66062;52.464;16.922;2023-09-30T05:31:48;101059.00;;;15.67;100.00
77110;BME280;66062;52.464;16.922;2023-09-30T05:34:14;101068.22;;;15.65;100.00
77110;BME280;66062;52.464;16.922;2023-09-30T05:36:39;101068.91;;;15.59;100.00
77110;BME280;66062;52.464;16.922;2023-09-30T05:39:05;101075.66;;;15.63;100.00
77110;BME280;66062;52.464;16.922;2023-09-30T05:41:33;101079.50;;;15.60;100.00
77110;BME280;66062;52.464;16.922;2023-09-30T05:43:59;101083.03;;;15.61;100.00
77110;BME280;66062;52.464;16.922;2023-09-30T05:46:25;101083.38;;;15.66;100.00
77110;BME280;66062;52.464;16.922;2023-09-30T05:48:52;101089.94;;;15.63;100.00
77110;BME280;66062;52.464;16.922;2023-09-30T05:51:17;101092.81;;;15.70;100.00
77110;BME280;66062;52.464;16.922;2023-09-30T05:53:44;101096.31;;;15.62;100.00
77110;BME280;66062;52.464;16.922;2023-09-30T05:56:10;101093.16;;;15.67;100.00
77110;BME280;66062;52.464;16.922;2023-09-30T05:58:36;101100.88;;;15.62;100.00
77110;BME280;66062;52.464;16.922;2023-09-30T06:01:07;101089.03;;;15.55;99.52
77110;BME280;66062;52.464;16.922;2023-09-30T06:03:36;101085.59;;;15.45;99.25
77110;BME280;66062;52.464;16.922;2023-09-30T06:06:10;101095.81;;;15.59;98.02
77110;BME280;66062;52.464;16.922;2023-09-30T06:08:36;101105.41;;;15.61;96.69
77110;BME280;66062;52.464;16.922;2023-09-30T06:11:02;101101.88;;;16.03;94.25
77110;BME280;66062;52.464;16.922;2023-09-30T06:13:28;101103.19;;;16.49;89.83
77110;BME280;66062;52.464;16.922;2023-09-30T06:15:58;101101.38;;;16.98;86.72
77110;BME280;66062;52.464;16.922;2023-09-30T06:18:23;101102.53;;;17.20;84.09
77110;BME280;66062;52.464;16.922;2023-09-30T06:20:49;101095.16;;;17.05;84.66
77110;BME280;66062;52.464;16.922;2023-09-30T06:23:16;101111.91;;;17.56;82.02
77110;BME280;66062;52.464;16.922;2023-09-30T06:25:42;101107.63;;;17.86;80.25
77110;BME280;66062;52.464;16.922;2023-09-30T06:28:08;101125.38;;;17.80;79.05
77110;BME280;66062;52.464;16.922;2023-09-30T06:30:34;101119.56;;;17.20;81.39
77110;BME280;66062;52.464;16.922;2023-09-30T06:33:00;101121.50;;;17.75;80.03
77110;BME280;66062;52.464;16.922;2023-09-30T06:35:26;101135.50;;;17.78;78.41
77110;BME280;66062;52.464;16.922;2023-09-30T06:37:52;101142.56;;;18.26;76.45
77110;BME280;66062;52.464;16.922;2023-09-30T06:40:17;101146.03;;;18.43;75.78
77110;BME280;66062;52.464;16.922;2023-09-30T06:42:44;101154.75;;;18.53;74.83
77110;BME280;66062;52.464;16.922;2023-09-30T06:45:10;101156.09;;;18.49;73.90
77110;BME280;66062;52.464;16.922;2023-09-30T06:47:36;101158.44;;;18.60;73.84
77110;BME280;66062;52.464;16.922;2023-09-30T06:50:02;101160.44;;;18.66;72.89
77110;BME280;66062;52.464;16.922;2023-09-30T06:52:38;101161.22;;;18.98;71.51
77110;BME280;66062;52.464;16.922;2023-09-30T06:55:05;101173.78;;;19.13;70.62
77110;BME280;66062;52.464;16.922;2023-09-30T06:57:32;101163.31;;;19.85;68.37
77110;BME280;66062;52.464;16.922;2023-09-30T07:00:00;101162.81;;;19.96;66.21
77110;BME280;66062;52.464;16.922;2023-09-30T07:02:25;101156.25;;;20.49;64.60
77110;BME280;66062;52.464;16.922;2023-09-30T07:04:52;101164.41;;;20.05;65.62
77110;BME280;66062;52.464;16.922;2023-09-30T07:07:18;101164.22;;;20.36;65.60
77110;BME280;66062;52.464;16.922;2023-09-30T07:09:44;101166.63;;;20.82;63.00
77110;BME280;66062;52.464;16.922;2023-09-30T07:12:09;101157.44;;;21.04;60.89
77110;BME280;66062;52.464;16.922;2023-09-30T07:14:34;101159.22;;;21.95;58.41
77110;BME280;66062;52.464;16.922;2023-09-30T07:17:00;101169.91;;;22.44;56.47
77110;BME280;66062;52.464;16.922;2023-09-30T07:19:25;101171.78;;;23.05;54.75
77110;BME280;66062;52.464;16.922;2023-09-30T07:21:51;101170.69;;;22.79;54.45
77110;BME280;66062;52.464;16.922;2023-09-30T07:24:16;101179.59;;;22.60;55.16
77110;BME280;66062;52.464;16.922;2023-09-30T07:26:42;101174.06;;;22.34;56.54
77110;BME280;66062;52.464;16.922;2023-09-30T07:29:09;101168.16;;;22.24;55.82
77110;BME280;66062;52.464;16.922;2023-09-30T07:31:37;101186.91;;;20.86;60.97
77110;BME280;66062;52.464;16.922;2023-09-30T07:34:02;101210.19;;;18.80;68.62
77110;BME280;66062;52.464;16.922;2023-09-30T07:36:28;101214.81;;;17.85;73.49
77110;BME280;66062;52.464;16.922;2023-09-30T07:38:53;101220.06;;;18.73;71.28
77110;BME280;66062;52.464;16.922;2023-09-30T07:41:19;101220.28;;;18.63;71.01
77110;BME280;66062;52.464;16.922;2023-09-30T07:43:45;101219.97;;;19.12;69.95
77110;BME280;66062;52.464;16.922;2023-09-30T07:46:10;101225.28;;;18.35;71.63
77110;BME280;66062;52.464;16.922;2023-09-30T07:48:35;101239.47;;;17.82;74.36
77110;BME280;66062;52.464;16.922;2023-09-30T07:51:01;101229.44;;;17.99;74.81
77110;BME280;66062;52.464;16.922;2023-09-30T07:53:27;101235.94;;;18.37;73.34
77110;BME280;66062;52.464;16.922;2023-09-30T07:55:52;101239.41;;;17.99;74.53
77110;BME280;66062;52.464;16.922;2023-09-30T07:58:19;101245.53;;;17.84;75.23
77110;BME280;66062;52.464;16.922;2023-09-30T08:00:45;101246.34;;;17.93;75.47
77110;BME280;66062;52.464;16.922;2023-09-30T08:03:11;101246.81;;;18.05;74.31
77110;BME280;66062;52.464;16.922;2023-09-30T08:05:37;101258.53;;;17.73;75.60
77110;BME280;66062;52.464;16.922;2023-09-30T08:08:03;101260.34;;;18.91;70.91
77110;BME280;66062;52.464;16.922;2023-09-30T08:10:30;101256.84;;;21.69;59.94
77110;BME280;66062;52.464;16.922;2023-09-30T08:12:57;101260.66;;;20.75;60.67
77110;BME280;66062;52.464;16.922;2023-09-30T08:15:24;101267.22;;;19.01;66.77
77110;BME280;66062;52.464;16.922;2023-09-30T08:17:49;101270.25;;;19.29;66.57
77110;BME280;66062;52.464;16.922;2023-09-30T08:20:15;101273.84;;;18.99;69.01
77110;BME280;66062;52.464;16.922;2023-09-30T08:22:40;101263.91;;;18.52;70.61
77110;BME280;66062;52.464;16.922;2023-09-30T08:25:09;101278.69;;;18.33;71.53
77110;BME280;66062;52.464;16.922;2023-09-30T08:27:36;101281.00;;;19.45;66.57
77110;BME280;66062;52.464;16.922;2023-09-30T08:30:05;101287.00;;;19.55;66.74
77110;BME280;66062;52.464;16.922;2023-09-30T08:32:37;101286.16;;;19.55;65.60
77110;BME280;66062;52.464;16.922;2023-09-30T08:35:03;101295.44;;;19.60;66.08
77110;BME280;66062;52.464;16.922;2023-09-30T08:37:29;101283.91;;;21.56;59.01
77110;BME280;66062;52.464;16.922;2023-09-30T08:39:59;101284.13;;;22.38;54.74
77110;BME280;66062;52.464;16.922;2023-09-30T08:42:29;101290.34;;;20.32;61.19
77110;BME280;66062;52.464;16.922;2023-09-30T08:51:02;101287.56;;;22.94;51.54
77110;BME280;66062;52.464;16.922;2023-09-30T08:53:31;101299.03;;;21.44;55.27
77110;BME280;66062;52.464;16.922;2023-09-30T08:55:57;101297.09;;;22.36;52.74
77110;BME280;66062;52.464;16.922;2023-09-30T08:58:28;101292.50;;;25.07;47.17
77110;BME280;66062;52.464;16.922;2023-09-30T09:00:57;101285.41;;;25.69;42.66
77110;BME280;66062;52.464;16.922;2023-09-30T09:03:22;101289.31;;;25.80;42.05
77110;BME280;66062;52.464;16.922;2023-09-30T09:05:55;101287.31;;;23.82;46.96
77110;BME280;66062;52.464;16.922;2023-09-30T09:08:21;101301.72;;;22.42;50.83
77110;BME280;66062;52.464;16.922;2023-09-30T09:10:57;101298.41;;;24.14;45.96
77110;BME280;66062;52.464;16.922;2023-09-30T09:13:45;101299.16;;;24.74;44.56
77110;BME280;66062;52.464;16.922;2023-09-30T09:16:11;101289.75;;;26.99;39.56
77110;BME280;66062;52.464;16.922;2023-09-30T09:18:38;101299.00;;;26.62;39.64
77110;BME280;66062;52.464;16.922;2023-09-30T09:21:10;101288.72;;;27.42;37.77
77110;BME280;66062;52.464;16.922;2023-09-30T09:23:49;101298.66;;;23.79;44.31
77110;BME280;66062;52.464;16.922;2023-09-30T09:26:29;101309.81;;;22.01;50.29
77110;BME280;66062;52.464;16.922;2023-09-30T09:28:59;101309.88;;;21.86;51.72
77110;BME280;66062;52.464;16.922;2023-09-30T09:31:30;101303.78;;;24.66;44.42
77110;BME280;66062;52.464;16.922;2023-09-30T09:33:57;101314.53;;;25.19;42.11
77110;BME280;66062;52.464;16.922;2023-09-30T09:36:39;101313.00;;;24.79;42.10
77110;BME280;66062;52.464;16.922;2023-09-30T09:39:05;101306.06;;;25.90;40.19
77110;BME280;66062;52.464;16.922;2023-09-30T09:41:30;101301.16;;;26.17;37.95
77110;BME280;66062;52.464;16.922;2023-09-30T09:43:57;101299.03;;;26.80;35.70
77110;BME280;66062;52.464;16.922;2023-09-30T09:46:24;101319.41;;;24.07;42.06
77110;BME280;66062;52.464;16.922;2023-09-30T09:48:52;101330.78;;;22.35;46.47
77110;BME280;66062;52.464;16.922;2023-09-30T09:51:20;101332.13;;;22.17;47.17
77110;BME280;66062;52.464;16.922;2023-09-30T09:53:46;101321.47;;;24.44;41.97
77110;BME280;66062;52.464;16.922;2023-09-30T09:56:15;101320.66;;;23.98;42.06
77110;BME280;66062;52.464;16.922;2023-09-30T09:58:41;101330.13;;;22.05;45.93
77110;BME280;66062;52.464;16.922;2023-09-30T10:01:11;101329.88;;;22.90;44.81
77110;BME280;66062;52.464;16.922;2023-09-30T10:03:38;101327.63;;;25.04;40.16
77110;BME280;66062;52.464;16.922;2023-09-30T10:06:05;101322.47;;;25.21;39.50
77110;BME280;66062;52.464;16.922;2023-09-30T10:08:36;101310.38;;;27.32;35.90
77110;BME280;66062;52.464;16.922;2023-09-30T10:11:03;101313.31;;;28.25;34.29
77110;BME280;66062;52.464;16.922;2023-09-30T10:13:55;101310.19;;;28.56;32.86
77110;BME280;66062;52.464;16.922;2023-09-30T10:19:12;101320.63;;;26.09;36.15
77110;BME280;66062;52.464;16.922;2023-09-30T10:21:39;101328.56;;;25.61;37.40
77110;BME280;66062;52.464;16.922;2023-09-30T10:24:40;101320.41;;;26.71;35.99
77110;BME280;66062;52.464;16.922;2023-09-30T10:40:47;101324.91;;;21.61;46.32
77110;BME280;66062;52.464;16.922;2023-09-30T10:43:36;101324.75;;;21.69;47.34
77110;BME280;66062;52.464;16.922;2023-09-30T10:46:03;101319.84;;;22.00;46.69
77110;BME280;66062;52.464;16.922;2023-09-30T10:48:32;101325.81;;;21.11;48.52
77110;BME280;66062;52.464;16.922;2023-09-30T10:51:01;101335.81;;;21.10;49.54
77110;BME280;66062;52.464;16.922;2023-09-30T10:53:27;101326.78;;;21.18;48.95
77110;BME280;66062;52.464;16.922;2023-09-30T10:55:57;101326.38;;;21.06;48.70
77110;BME280;66062;52.464;16.922;2023-09-30T10:58:46;101325.94;;;20.29;50.32
77110;BME280;66062;52.464;16.922;2023-09-30T11:01:13;101323.44;;;20.42;50.66
77110;BME280;66062;52.464;16.922;2023-09-30T11:03:42;101326.34;;;20.41;48.07
77110;BME280;66062;52.464;16.922;2023-09-30T11:06:28;101329.03;;;20.26;48.74
77110;BME280;66062;52.464;16.922;2023-09-30T11:08:59;101332.91;;;20.09;48.57
77110;BME280;66062;52.464;16.922;2023-09-30T11:14:02;101330.06;;;20.25;49.07
77110;BME280;66062;52.464;16.922;2023-09-30T11:16:40;101337.88;;;20.05;49.36
77110;BME280;66062;52.464;16.922;2023-09-30T11:19:06;101332.34;;;19.99;50.42
77110;BME280;66062;52.464;16.922;2023-09-30T11:21:33;101345.75;;;20.15;49.38
77110;BME280;66062;52.464;16.922;2023-09-30T11:24:01;101336.34;;;20.70;47.28
77110;BME280;66062;52.464;16.922;2023-09-30T11:26:30;101332.91;;;22.11;43.20
77110;BME280;66062;52.464;16.922;2023-09-30T11:29:16;101332.78;;;22.88;42.10
77110;BME280;66062;52.464;16.922;2023-09-30T11:31:50;101327.94;;;22.49;42.79
77110;BME280;66062;52.464;16.922;2023-09-30T11:34:31;101329.16;;;22.12;43.51
77110;BME280;66062;52.464;16.922;2023-09-30T11:37:00;101331.38;;;22.99;42.56
77110;BME280;66062;52.464;16.922;2023-09-30T11:39:27;101330.31;;;24.33;39.62
77110;BME280;66062;52.464;16.922;2023-09-30T11:41:53;101331.56;;;23.98;39.72
77110;BME280;66062;52.464;16.922;2023-09-30T11:44:22;101327.38;;;23.69;40.64
77110;BME280;66062;52.464;16.922;2023-09-30T11:47:00;101323.50;;;22.76;40.94
77110;BME280;66062;52.464;16.922;2023-09-30T11:49:36;101328.09;;;24.81;37.61
77110;BME280;66062;52.464;16.922;2023-09-30T11:52:08;101326.28;;;25.58;36.02
77110;BME280;66062;52.464;16.922;2023-09-30T11:54:40;101328.06;;;24.94;36.65
77110;BME280;66062;52.464;16.922;2023-09-30T11:57:15;101326.00;;;23.32;40.54
77110;BME280;66062;52.464;16.922;2023-09-30T11:59:42;101330.84;;;23.30;40.95
77110;BME280;66062;52.464;16.922;2023-09-30T12:02:15;101332.84;;;23.95;39.98
77110;BME280;66062;52.464;16.922;2023-09-30T12:04:43;101327.25;;;23.23;41.15
77110;BME280;66062;52.464;16.922;2023-09-30T12:07:09;101336.06;;;22.43;42.63
77110;BME280;66062;52.464;16.922;2023-09-30T12:09:38;101333.09;;;22.38;42.99
77110;BME280;66062;52.464;16.922;2023-09-30T12:12:07;101341.94;;;21.48;45.02
77110;BME280;66062;52.464;16.922;2023-09-30T12:14:36;101335.44;;;21.92;44.95
77110;BME280;66062;52.464;16.922;2023-09-30T12:17:01;101339.00;;;21.50;45.94
77110;BME280;66062;52.464;16.922;2023-09-30T12:19:27;101348.56;;;21.46;46.54
77110;BME280;66062;52.464;16.922;2023-09-30T12:21:52;101347.25;;;21.06;46.68
77110;BME280;66062;52.464;16.922;2023-09-30T12:24:18;101349.06;;;20.84;47.30
77110;BME280;66062;52.464;16.922;2023-09-30T12:26:50;101351.88;;;20.76;48.27
77110;BME280;66062;52.464;16.922;2023-09-30T12:29:21;101349.63;;;20.35;48.69
77110;BME280;66062;52.464;16.922;2023-09-30T12:31:52;101354.97;;;20.06;49.73
77110;BME280;66062;52.464;16.922;2023-09-30T12:34:17;101357.50;;;20.45;48.88
77110;BME280;66062;52.464;16.922;2023-09-30T12:36:43;101348.31;;;20.90;47.32
77110;BME280;66062;52.464;16.922;2023-09-30T12:39:11;101346.50;;;21.12;46.39
77110;BME280;66062;52.464;16.922;2023-09-30T12:41:38;101345.78;;;20.88;47.08
77110;BME280;66062;52.464;16.922;2023-09-30T12:44:04;101345.63;;;20.75;48.03
77110;BME280;66062;52.464;16.922;2023-09-30T12:46:30;101356.06;;;21.22;47.25
77110;BME280;66062;52.464;16.922;2023-09-30T12:48:56;101343.78;;;21.69;46.17
77110;BME280;66062;52.464;16.922;2023-09-30T12:51:21;101344.72;;;22.25;44.63
77110;BME280;66062;52.464;16.922;2023-09-30T12:53:46;101338.28;;;23.56;42.50
77110;BME280;66062;52.464;16.922;2023-09-30T12:56:12;101343.75;;;24.02;41.06
77110;BME280;66062;52.464;16.922;2023-09-30T12:58:37;101334.78;;;23.14;41.83
77110;BME280;66062;52.464;16.922;2023-09-30T13:01:04;101341.00;;;22.33;44.68
77110;BME280;66062;52.464;16.922;2023-09-30T13:03:31;101337.44;;;23.62;41.44
77110;BME280;66062;52.464;16.922;2023-09-30T13:05:57;101345.19;;;24.63;39.50